Time;durP1;ratioP1;P1;durP2;ratioP2;P2;SDS_P1;SDS_P2;PMS_P1;PMS_P2;Temp;Humidity;BMP_temperature;BMP_pressure;BME280_temperature;BME280_humidity;BME280_pressure;Samples;Min_cycle;Max_cycle;Signal;HPM_P1;HPM_P2
2021/12/13 00:01:21;;;;;;;2.65;1.25;;;;;;;;;;6219337;22;20730;-44
2021/12/13 00:03:46;;;;;;;4.75;1.10;;;;;;;;;;6217253;22;20015;-49
2021/12/13 00:06:13;;;;;;;2.78;1.33;;;;;;;;;;6219036;22;20048;-43
2021/12/13 00:08:39;;;;;;;1.42;0.90;;;;;;;;;;6223912;22;19996;-43
2021/12/13 00:11:13;;;;;;;3.88;1.05;;;;;;;;;;6224678;22;20460;-43
2021/12/13 00:13:41;;;;;;;3.50;1.00;;;;;;;;;;6218600;22;20092;-47
2021/12/13 00:16:08;;;;;;;3.90;1.15;;;;;;;;;;6218494;22;20524;-49
2021/12/13 00:18:38;;;;;;;4.72;1.10;;;;;;;;;;6220771;22;20016;-44
2021/12/13 00:21:30;;;;;;;3.03;0.85;;;;;;;;;;6222097;22;20016;-44
2021/12/13 00:23:58;;;;;;;3.03;0.90;;;;;;;;;;6216836;22;20023;-43
2021/12/13 00:26:28;;;;;;;7.20;1.20;;;;;;;;;;6221374;22;20024;-44
2021/12/13 00:28:54;;;;;;;4.10;1.60;;;;;;;;;;6219159;22;20020;-43
2021/12/13 00:31:36;;;;;;;5.35;1.08;;;;;;;;;;6219594;22;20009;-43
2021/12/13 00:34:26;;;;;;;4.63;1.33;;;;;;;;;;6223903;22;20020;-44
2021/12/13 00:36:54;;;;;;;2.25;1.23;;;;;;;;;;6217509;22;20016;-45
2021/12/13 00:39:28;;;;;;;1.60;0.75;;;;;;;;;;6220186;22;20388;-44
2021/12/13 00:41:54;;;;;;;8.48;1.95;;;;;;;;;;6224270;22;20454;-43
2021/12/13 00:44:22;;;;;;;4.43;0.90;;;;;;;;;;6221068;22;20016;-46
2021/12/13 00:46:49;;;;;;;2.85;1.25;;;;;;;;;;6218601;22;20009;-43
2021/12/13 00:49:15;;;;;;;5.55;1.10;;;;;;;;;;6218413;22;20013;-42
2021/12/13 00:51:46;;;;;;;2.42;1.75;;;;;;;;;;6224010;22;20022;-43
2021/12/13 00:54:16;;;;;;;3.45;1.00;;;;;;;;;;6222533;22;20012;-43
2021/12/13 00:56:56;;;;;;;2.75;1.23;;;;;;;;;;6218896;22;20012;-43
2021/12/13 00:59:27;;;;;;;3.72;0.80;;;;;;;;;;6220776;22;20043;-46
2021/12/13 01:01:55;;;;;;;4.43;1.20;;;;;;;;;;6223612;22;20028;-43
2021/12/13 01:04:20;;;;;;;1.92;1.17;;;;;;;;;;6220606;22;20028;-47
2021/12/13 01:06:54;;;;;;;3.75;0.90;;;;;;;;;;6218429;22;20194;-43
2021/12/13 01:09:38;;;;;;;5.55;1.80;;;;;;;;;;6220317;22;20012;-44
2021/12/13 01:12:06;;;;;;;3.05;0.93;;;;;;;;;;6223799;22;20066;-44
2021/12/13 01:14:55;;;;;;;4.65;1.10;;;;;;;;;;6218438;22;20023;-43
2021/12/13 01:17:27;;;;;;;;;;;;;;;;;;6220932;22;20012;-43
2021/12/13 01:20:00;;;;;;;2.55;1.15;;;;;;;;;;6223205;22;20338;-44
2021/12/13 01:23:13;;;;;;;2.08;1.00;;;;;;;;;;6220504;22;20104;-44
2021/12/13 01:25:24;;;;;;;6.90;1.15;;;;;;;;;;6206232;23;20028;-43
2021/12/13 01:27:55;;;;;;;1.90;1.30;;;;;;;;;;6218055;22;20395;-43
2021/12/13 01:30:26;;;;;;;3.95;1.08;;;;;;;;;;6219661;22;20013;-43
2021/12/13 01:32:52;;;;;;;5.82;1.30;;;;;;;;;;6223528;22;20444;-44
2021/12/13 01:35:20;;;;;;;4.20;1.13;;;;;;;;;;6221064;22;20522;-44
2021/12/13 01:37:51;;;;;;;2.92;1.05;;;;;;;;;;6218372;22;20024;-43
2021/12/13 01:40:17;;;;;;;4.70;1.00;;;;;;;;;;6217699;22;20013;-44
2021/12/13 01:42:42;;;;;;;4.78;1.00;;;;;;;;;;6214279;23;20095;-44
2021/12/13 01:45:11;;;;;;;1.83;0.95;;;;;;;;;;6205581;23;20311;-43
2021/12/13 01:47:41;;;;;;;4.82;0.77;;;;;;;;;;6218207;22;20039;-44
2021/12/13 01:50:14;;;;;;;2.13;1.00;;;;;;;;;;6217882;22;20177;-43
2021/12/13 01:52:40;;;;;;;2.30;0.88;;;;;;;;;;6235814;22;20392;-46
2021/12/13 01:55:12;;;;;;;2.40;0.93;;;;;;;;;;6235734;22;20445;-46
2021/12/13 01:57:48;;;;;;;2.85;0.73;;;;;;;;;;6235439;22;20011;-45
2021/12/13 02:00:18;;;;;;;1.33;0.77;;;;;;;;;;6235039;22;20020;-48
2021/12/13 02:02:45;;;;;;;2.38;0.85;;;;;;;;;;6236546;22;20143;-45
2021/12/13 02:05:36;;;;;;;2.10;0.63;;;;;;;;;;6235392;22;20024;-43
2021/12/13 02:08:07;;;;;;;1.67;0.82;;;;;;;;;;6214673;22;20036;-48
2021/12/13 02:10:49;;;;;;;3.22;0.90;;;;;;;;;;6220568;22;20004;-47
2021/12/13 02:13:20;;;;;;;1.45;0.90;;;;;;;;;;6221243;22;20023;-47
2021/12/13 02:18:33;;;;;;;11.77;1.15;;;;;;;;;;6221809;22;20018;-47
2021/12/13 02:21:06;;;;;;;2.60;0.85;;;;;;;;;;6220630;22;20016;-45
2021/12/13 02:23:39;;;;;;;3.13;0.60;;;;;;;;;;6208014;22;20095;-46
2021/12/13 02:26:05;;;;;;;2.28;1.00;;;;;;;;;;6223617;22;20529;-49
2021/12/13 02:28:33;;;;;;;1.65;0.95;;;;;;;;;;6217657;22;20012;-45
2021/12/13 02:31:02;;;;;;;1.73;0.52;;;;;;;;;;6217208;22;20043;-44
2021/12/13 02:33:35;;;;;;;2.85;0.80;;;;;;;;;;6221216;22;20017;-45
2021/12/13 02:36:03;;;;;;;1.88;0.95;;;;;;;;;;6222334;22;20017;-43
2021/12/13 02:38:28;;;;;;;2.28;0.88;;;;;;;;;;6218763;22;20031;-44
2021/12/13 02:40:54;;;;;;;2.00;0.77;;;;;;;;;;6216966;22;20453;-43
2021/12/13 02:43:21;;;;;;;7.68;2.65;;;;;;;;;;6219453;22;20032;-43
2021/12/13 02:45:49;;;;;;;4.25;0.70;;;;;;;;;;6212212;23;20017;-45
2021/12/13 02:48:18;;;;;;;5.97;1.50;;;;;;;;;;6204926;23;20353;-45
2021/12/13 02:50:52;;;;;;;2.47;0.77;;;;;;;;;;6217489;22;20021;-43
2021/12/13 02:53:20;;;;;;;4.63;1.17;;;;;;;;;;6219296;22;20016;-43
2021/12/13 02:55:46;;;;;;;2.67;0.77;;;;;;;;;;6223233;22;20032;-43
2021/12/13 02:58:13;;;;;;;1.23;0.70;;;;;;;;;;6223938;22;20062;-44
2021/12/13 03:00:38;;;;;;;3.47;0.90;;;;;;;;;;6219534;22;20058;-43
2021/12/13 03:03:06;;;;;;;4.18;0.70;;;;;;;;;;6220239;22;20388;-43
2021/12/13 03:05:35;;;;;;;5.93;1.15;;;;;;;;;;6223574;22;20031;-43
2021/12/13 03:08:05;;;;;;;4.00;1.20;;;;;;;;;;6224041;22;20652;-43
2021/12/13 03:10:32;;;;;;;6.72;0.90;;;;;;;;;;6210005;22;20016;-44
2021/12/13 03:12:57;;;;;;;9.57;1.90;;;;;;;;;;6224816;22;20061;-43
2021/12/13 03:15:25;;;;;;;3.60;1.10;;;;;;;;;;6221823;22;20083;-45
2021/12/13 03:17:53;;;;;;;4.20;1.20;;;;;;;;;;6219244;22;20090;-44
2021/12/13 03:20:19;;;;;;;5.78;1.33;;;;;;;;;;6221138;22;20326;-43
2021/12/13 03:22:50;;;;;;;7.00;1.23;;;;;;;;;;6223622;22;20023;-43
2021/12/13 03:25:21;;;;;;;5.82;1.58;;;;;;;;;;6223463;22;20745;-45
2021/12/13 03:28:01;;;;;;;5.25;1.25;;;;;;;;;;6218787;22;20005;-44
2021/12/13 03:30:30;;;;;;;3.70;1.20;;;;;;;;;;6220531;22;20044;-44
2021/12/13 03:32:56;;;;;;;5.50;1.13;;;;;;;;;;6224648;22;20008;-43
2021/12/13 03:35:42;;;;;;;2.30;0.70;;;;;;;;;;6221794;22;20071;-43
2021/12/13 03:38:10;;;;;;;2.33;0.80;;;;;;;;;;6217886;22;20445;-43
2021/12/13 03:40:35;;;;;;;4.22;0.98;;;;;;;;;;6224057;22;20004;-44
2021/12/13 03:43:04;;;;;;;5.43;0.98;;;;;;;;;;6225571;22;20035;-44
2021/12/13 03:45:36;;;;;;;1.30;0.82;;;;;;;;;;6219372;22;20027;-43
2021/12/13 03:48:04;;;;;;;4.75;1.05;;;;;;;;;;6219980;22;20011;-43
2021/12/13 03:50:32;;;;;;;3.22;1.30;;;;;;;;;;6222141;22;20100;-45
2021/12/13 03:52:59;;;;;;;1.38;0.80;;;;;;;;;;6224922;22;20095;-44
2021/12/13 03:55:28;;;;;;;2.92;1.20;;;;;;;;;;6220254;22;20023;-43
2021/12/13 03:57:56;;;;;;;3.63;1.13;;;;;;;;;;6219559;22;20020;-43
2021/12/13 04:00:24;;;;;;;1.67;0.63;;;;;;;;;;6221163;22;20069;-43
2021/12/13 04:02:49;;;;;;;1.98;0.80;;;;;;;;;;6224838;22;20332;-43
2021/12/13 04:05:17;;;;;;;5.72;1.15;;;;;;;;;;6222440;22;20054;-45
2021/12/13 04:07:44;;;;;;;2.95;0.80;;;;;;;;;;6219389;22;20008;-43
2021/12/13 04:10:15;;;;;;;3.45;1.00;;;;;;;;;;6218456;22;20096;-43
2021/12/13 04:12:47;;;;;;;2.25;1.02;;;;;;;;;;6218671;22;20008;-43
2021/12/13 04:15:15;;;;;;;3.05;0.90;;;;;;;;;;6218809;22;20009;-44
2021/12/13 04:18:12;;;;;;;2.47;1.23;;;;;;;;;;6223894;22;20063;-43
2021/12/13 04:20:33;;;;;;;5.75;0.80;;;;;;;;;;6223678;22;22180;-43
2021/12/13 04:23:07;;;;;;;1.45;1.33;;;;;;;;;;6223958;22;20467;-43
2021/12/13 04:25:36;;;;;;;4.53;1.42;;;;;;;;;;6219285;22;20016;-43
2021/12/13 04:28:05;;;;;;;4.22;1.33;;;;;;;;;;6218694;22;20054;-43
2021/12/13 04:30:42;;;;;;;3.15;1.10;;;;;;;;;;6222811;22;20074;-43
2021/12/13 04:33:09;;;;;;;6.18;0.93;;;;;;;;;;6224326;22;20012;-43
2021/12/13 04:35:34;;;;;;;3.92;1.15;;;;;;;;;;6217709;22;20024;-43
2021/12/13 04:38:01;;;;;;;3.35;0.90;;;;;;;;;;6219615;22;20016;-43
2021/12/13 04:40:34;;;;;;;2.17;0.95;;;;;;;;;;6219707;22;20372;-43
2021/12/13 04:43:02;;;;;;;4.97;1.23;;;;;;;;;;6224702;22;20042;-43
2021/12/13 04:45:28;;;;;;;1.33;0.70;;;;;;;;;;6218927;22;20030;-43
2021/12/13 04:47:57;;;;;;;1.77;0.90;;;;;;;;;;6219177;22;20436;-43
2021/12/13 04:50:24;;;;;;;5.83;1.57;;;;;;;;;;6219814;22;20024;-43
2021/12/13 04:52:50;;;;;;;2.63;1.10;;;;;;;;;;6224096;22;20258;-43
2021/12/13 04:55:17;;;;;;;8.25;2.13;;;;;;;;;;6221637;22;20066;-43
2021/12/13 04:57:43;;;;;;;2.17;0.90;;;;;;;;;;6217117;22;20035;-43
2021/12/13 05:00:14;;;;;;;4.30;1.05;;;;;;;;;;6218466;22;20071;-45
2021/12/13 05:02:43;;;;;;;3.80;1.40;;;;;;;;;;6218322;22;20445;-44
2021/12/13 05:05:09;;;;;;;3.00;1.05;;;;;;;;;;6218346;22;20104;-43
2021/12/13 05:07:34;;;;;;;4.50;1.50;;;;;;;;;;6223342;22;20024;-43
2021/12/13 05:10:00;;;;;;;5.07;1.67;;;;;;;;;;6223424;22;20019;-44
2021/12/13 05:12:28;;;;;;;3.60;1.23;;;;;;;;;;6220364;22;20016;-44
2021/12/13 05:14:56;;;;;;;6.32;1.30;;;;;;;;;;6218284;22;20013;-43
2021/12/13 05:17:23;;;;;;;3.75;1.50;;;;;;;;;;6220161;22;20004;-42
2021/12/13 05:19:51;;;;;;;4.95;1.50;;;;;;;;;;6223824;22;20012;-43
2021/12/13 05:22:18;;;;;;;3.97;1.00;;;;;;;;;;6222274;22;20019;-44
2021/12/13 05:24:46;;;;;;;3.20;1.52;;;;;;;;;;6217876;22;20088;-43
2021/12/13 05:27:13;;;;;;;5.03;1.45;;;;;;;;;;6218354;22;20016;-42
2021/12/13 05:29:43;;;;;;;5.30;1.10;;;;;;;;;;6224053;22;20088;-44
2021/12/13 05:32:22;;;;;;;7.40;2.30;;;;;;;;;;6223988;22;20019;-43
2021/12/13 05:34:53;;;;;;;4.40;1.20;;;;;;;;;;6216630;23;20017;-43
2021/12/13 05:37:18;;;;;;;2.05;1.05;;;;;;;;;;6204687;23;20235;-43
2021/12/13 05:39:56;;;;;;;3.00;1.17;;;;;;;;;;6218628;22;20067;-42
2021/12/13 05:42:21;;;;;;;5.82;1.48;;;;;;;;;;6219957;22;20008;-43
2021/12/13 05:44:47;;;;;;;4.45;1.75;;;;;;;;;;6223211;22;20020;-43
2021/12/13 05:47:21;;;;;;;3.05;1.40;;;;;;;;;;6222687;22;20069;-43
2021/12/13 05:49:47;;;;;;;3.92;1.77;;;;;;;;;;6217610;22;20012;-43
2021/12/13 05:52:14;;;;;;;3.78;1.63;;;;;;;;;;6218506;22;20777;-43
2021/12/13 05:54:41;;;;;;;5.75;1.58;;;;;;;;;;6223428;22;20016;-44
2021/12/13 05:57:25;;;;;;;2.67;1.42;;;;;;;;;;6223416;22;20008;-43
2021/12/13 05:59:51;;;;;;;5.65;1.30;;;;;;;;;;6217512;22;20012;-45
2021/12/13 06:02:18;;;;;;;3.30;1.17;;;;;;;;;;6219375;22;20322;-45
2021/12/13 06:04:59;;;;;;;3.38;1.20;;;;;;;;;;6222499;22;20026;-43
2021/12/13 06:07:26;;;;;;;3.38;1.38;;;;;;;;;;6219840;22;20106;-43
2021/12/13 06:09:52;;;;;;;2.72;1.17;;;;;;;;;;6217939;22;20431;-43
2021/12/13 06:12:28;;;;;;;11.07;1.40;;;;;;;;;;6219276;22;20016;-44
2021/12/13 06:14:54;;;;;;;2.78;1.73;;;;;;;;;;6223768;22;20667;-46
2021/12/13 06:17:31;;;;;;;4.63;1.95;;;;;;;;;;6220069;22;20464;-45
2021/12/13 06:19:59;;;;;;;4.15;1.48;;;;;;;;;;6218528;22;20341;-45
2021/12/13 06:22:26;;;;;;;1.90;1.70;;;;;;;;;;6220530;22;20938;-44
2021/12/13 06:24:51;;;;;;;2.70;1.38;;;;;;;;;;6213054;23;20079;-43
2021/12/13 06:27:21;;;;;;;3.63;1.23;;;;;;;;;;6204425;23;20361;-45
2021/12/13 06:29:48;;;;;;;6.05;1.63;;;;;;;;;;6218062;22;20017;-44
2021/12/13 06:32:28;;;;;;;2.38;1.00;;;;;;;;;;6217735;22;20005;-44
2021/12/13 06:34:53;;;;;;;1.63;1.08;;;;;;;;;;6222752;22;20012;-45
2021/12/13 06:37:23;;;;;;;6.32;1.45;;;;;;;;;;6220577;22;20082;-44
2021/12/13 06:39:48;;;;;;;1.45;1.23;;;;;;;;;;6217618;22;20017;-48
2021/12/13 06:42:14;;;;;;;3.80;1.42;;;;;;;;;;6217674;22;20178;-44
2021/12/13 06:44:45;;;;;;;2.55;1.02;;;;;;;;;;6223595;22;20013;-45
2021/12/13 06:47:15;;;;;;;2.17;1.00;;;;;;;;;;6208519;23;20516;-44
2021/12/13 06:49:43;;;;;;;3.75;1.50;;;;;;;;;;6204476;23;20314;-45
2021/12/13 06:52:19;;;;;;;2.92;1.05;;;;;;;;;;6218027;22;20021;-43
2021/12/13 06:54:46;;;;;;;4.13;1.70;;;;;;;;;;6235082;22;20487;-43
2021/12/13 06:57:14;;;;;;;6.32;1.13;;;;;;;;;;6235020;22;20035;-43
2021/12/13 06:59:52;;;;;;;2.83;1.13;;;;;;;;;;6234807;22;20009;-45
2021/12/13 07:02:23;;;;;;;5.78;1.67;;;;;;;;;;6235058;22;20019;-43
2021/12/13 07:04:54;;;;;;;6.22;1.65;;;;;;;;;;6234959;22;20016;-46
2021/12/13 07:07:21;;;;;;;4.60;1.10;;;;;;;;;;6235036;22;20016;-43
2021/12/13 07:09:51;;;;;;;1.20;0.93;;;;;;;;;;6234610;22;20461;-44
2021/12/13 07:12:17;;;;;;;5.55;1.08;;;;;;;;;;6234336;22;20181;-43
2021/12/13 07:14:44;;;;;;;2.15;1.00;;;;;;;;;;6235468;22;20113;-43
2021/12/13 07:17:14;;;;;;;5.97;1.50;;;;;;;;;;6235609;22;20023;-46
2021/12/13 07:19:41;;;;;;;3.13;0.80;;;;;;;;;;6221767;22;20004;-43
2021/12/13 07:22:07;;;;;;;1.20;1.00;;;;;;;;;;6222429;22;20008;-44
2021/12/13 07:24:40;;;;;;;2.03;1.00;;;;;;;;;;6217031;22;20051;-43
2021/12/13 07:27:07;;;;;;;0.95;0.70;;;;;;;;;;6217089;22;20019;-43
2021/12/13 07:29:35;;;;;;;2.58;0.85;;;;;;;;;;6221676;22;20008;-44
2021/12/13 07:32:04;;;;;;;5.30;0.95;;;;;;;;;;6222504;22;20107;-44
2021/12/13 07:34:29;;;;;;;3.47;1.00;;;;;;;;;;6218299;22;20012;-43
2021/12/13 07:36:56;;;;;;;1.40;0.68;;;;;;;;;;6217376;22;20457;-45
2021/12/13 07:39:24;;;;;;;1.17;0.90;;;;;;;;;;6219730;22;20013;-44
2021/12/13 07:41:52;;;;;;;2.92;1.00;;;;;;;;;;6222029;22;20016;-44
2021/12/13 07:44:36;;;;;;;1.67;1.13;;;;;;;;;;6221505;22;20471;-43
2021/12/13 07:47:06;;;;;;;1.55;1.33;;;;;;;;;;6218971;22;20012;-44
2021/12/13 07:49:36;;;;;;;5.53;1.10;;;;;;;;;;6222338;22;20111;-43
2021/12/13 07:52:02;;;;;;;;;;;;;;;;;;6225649;22;20019;-43
2021/12/13 07:54:28;;;;;;;1.05;0.75;;;;;;;;;;6219564;22;19931;-46
2021/12/13 07:56:53;;;;;;;1.98;0.80;;;;;;;;;;6219336;22;20009;-43
2021/12/13 07:59:18;;;;;;;1.35;0.80;;;;;;;;;;6219741;22;20047;-43
2021/12/13 08:01:48;;;;;;;3.27;1.00;;;;;;;;;;6224258;22;20008;-43
2021/12/13 08:04:17;;;;;;;4.63;0.98;;;;;;;;;;6223637;22;20274;-43
2021/12/13 08:06:46;;;;;;;2.10;0.75;;;;;;;;;;6219006;22;20070;-46
2021/12/13 08:09:16;;;;;;;2.83;0.90;;;;;;;;;;6218669;22;20058;-46
2021/12/13 08:11:49;;;;;;;3.63;1.00;;;;;;;;;;6223897;22;20082;-43
2021/12/13 08:14:14;;;;;;;4.05;0.90;;;;;;;;;;6222884;22;20012;-43
2021/12/13 08:16:44;;;;;;;1.92;0.80;;;;;;;;;;6219263;22;20047;-45
2021/12/13 08:19:26;;;;;;;4.53;1.70;;;;;;;;;;6218547;22;20620;-43
2021/12/13 08:21:56;;;;;;;1.90;1.00;;;;;;;;;;6219298;22;20040;-43
2021/12/13 08:24:24;;;;;;;1.25;0.90;;;;;;;;;;6220483;22;20016;-43
2021/12/13 08:26:53;;;;;;;1.15;0.80;;;;;;;;;;6224654;22;20694;-48
2021/12/13 08:29:23;;;;;;;4.10;0.80;;;;;;;;;;6221062;22;20487;-42
2021/12/13 08:31:52;;;;;;;6.30;1.00;;;;;;;;;;6218693;22;20313;-43
2021/12/13 08:34:38;;;;;;;3.58;1.17;;;;;;;;;;6219315;22;20016;-43
2021/12/13 08:37:19;;;;;;;1.83;0.90;;;;;;;;;;6223400;22;20012;-42
2021/12/13 08:39:47;;;;;;;5.47;0.90;;;;;;;;;;6218790;22;20008;-43
2021/12/13 08:42:23;;;;;;;5.20;1.35;;;;;;;;;;6216105;22;20519;-43
2021/12/13 08:45:07;;;;;;;2.85;1.00;;;;;;;;;;6221041;22;20036;-43
2021/12/13 08:47:41;;;;;;;1.85;0.70;;;;;;;;;;6215251;22;20028;-43
2021/12/13 08:50:10;;;;;;;1.30;0.88;;;;;;;;;;6215597;22;20024;-44
2021/12/13 08:52:37;;;;;;;2.97;1.23;;;;;;;;;;6232618;22;20008;-44
2021/12/13 08:55:05;;;;;;;1.25;0.70;;;;;;;;;;6233386;22;20393;-44
2021/12/13 08:57:50;;;;;;;1.85;0.60;;;;;;;;;;6232822;22;20019;-44
2021/12/13 09:00:27;;;;;;;1.60;0.90;;;;;;;;;;6232664;22;20030;-43
2021/12/13 09:03:01;;;;;;;3.03;1.02;;;;;;;;;;6233973;22;20027;-43
2021/12/13 09:05:34;;;;;;;1.42;0.43;;;;;;;;;;6233058;22;20027;-44
2021/12/13 09:08:04;;;;;;;3.28;0.90;;;;;;;;;;6232589;22;20035;-42
2021/12/13 09:10:48;;;;;;;1.55;1.08;;;;;;;;;;6231326;22;20532;-42
2021/12/13 09:13:15;;;;;;;5.00;1.42;;;;;;;;;;6226478;22;20012;-44
2021/12/13 09:15:41;;;;;;;2.85;0.70;;;;;;;;;;6230598;22;20145;-43
2021/12/13 09:18:07;;;;;;;2.78;1.30;;;;;;;;;;6228378;22;20016;-43
2021/12/13 09:20:37;;;;;;;1.25;0.50;;;;;;;;;;6227699;22;20031;-43
2021/12/13 09:23:21;;;;;;;3.55;0.90;;;;;;;;;;6228546;22;20016;-42
2021/12/13 09:25:50;;;;;;;1.38;0.95;;;;;;;;;;6230835;22;20059;-42
2021/12/13 09:28:15;;;;;;;2.37;0.97;;;;;;;;;;6235474;22;20388;-43
2021/12/13 09:30:43;;;;;;;5.20;1.10;;;;;;;;;;6236025;22;20727;-44
2021/12/13 09:33:19;;;;;;;2.88;0.80;;;;;;;;;;6235779;22;20046;-42
2021/12/13 09:35:48;;;;;;;4.72;0.85;;;;;;;;;;6234972;22;20437;-44
2021/12/13 09:38:31;;;;;;;0.63;0.47;;;;;;;;;;6235541;22;20330;-44
2021/12/13 09:41:20;;;;;;;2.78;0.63;;;;;;;;;;6234940;22;20023;-43
2021/12/13 09:43:46;;;;;;;3.63;0.80;;;;;;;;;;6205260;22;20452;-43
2021/12/13 09:46:12;;;;;;;0.88;0.45;;;;;;;;;;6217415;22;20032;-42
2021/12/13 09:48:42;;;;;;;1.52;0.70;;;;;;;;;;6223435;22;20008;-44
2021/12/13 09:51:12;;;;;;;0.77;0.50;;;;;;;;;;6215661;22;20854;-43
2021/12/13 09:53:38;;;;;;;2.00;0.70;;;;;;;;;;6210767;22;20622;-45
2021/12/13 09:56:06;;;;;;;0.95;0.63;;;;;;;;;;6211843;22;20013;-43
2021/12/13 09:58:42;;;;;;;0.63;0.52;;;;;;;;;;6214525;22;20015;-42
2021/12/13 10:01:12;;;;;;;2.92;0.60;;;;;;;;;;6217468;22;20019;-45
2021/12/13 10:03:55;;;;;;;0.52;0.47;;;;;;;;;;6210923;22;20026;-43
2021/12/13 10:06:22;;;;;;;2.55;0.60;;;;;;;;;;6213508;22;20103;-42
2021/12/13 10:08:57;;;;;;;1.77;0.45;;;;;;;;;;6216345;22;20531;-46
2021/12/13 10:11:45;;;;;;;1.50;0.93;;;;;;;;;;6212365;22;20015;-42
2021/12/13 10:14:11;;;;;;;2.10;0.68;;;;;;;;;;6153454;22;20479;-43
2021/12/13 10:16:38;;;;;;;0.30;0.30;;;;;;;;;;6211616;22;20009;-43
2021/12/13 10:19:04;;;;;;;1.75;0.50;;;;;;;;;;6211375;22;20088;-42
2021/12/13 10:21:36;;;;;;;1.10;0.35;;;;;;;;;;6215755;22;20554;-44
2021/12/13 10:24:04;;;;;;;1.45;0.43;;;;;;;;;;6215264;22;20020;-43
2021/12/13 10:26:31;;;;;;;2.05;0.40;;;;;;;;;;6211928;22;20024;-43
2021/12/13 10:28:58;;;;;;;0.50;0.30;;;;;;;;;;6212322;22;20012;-46
2021/12/13 10:31:26;;;;;;;0.52;0.20;;;;;;;;;;6212749;22;20023;-45
2021/12/13 10:33:53;;;;;;;0.73;0.30;;;;;;;;;;6216458;22;20480;-43
2021/12/13 10:36:18;;;;;;;0.20;0.20;;;;;;;;;;6214321;22;20023;-44
2021/12/13 10:38:47;;;;;;;0.63;0.30;;;;;;;;;;6210898;22;20009;-45
2021/12/13 10:41:16;;;;;;;0.20;0.20;;;;;;;;;;6211401;22;20465;-45
2021/12/13 10:43:43;;;;;;;0.20;0.20;;;;;;;;;;6216051;22;20011;-44
2021/12/13 10:46:11;;;;;;;0.20;0.13;;;;;;;;;;6216354;22;20031;-45
2021/12/13 10:48:44;;;;;;;0.17;0.17;;;;;;;;;;6215402;22;20008;-45
2021/12/13 10:51:14;;;;;;;1.00;0.20;;;;;;;;;;6217373;22;20083;-43
2021/12/13 10:53:41;;;;;;;0.30;0.10;;;;;;;;;;6216657;22;20370;-43
2021/12/13 10:56:09;;;;;;;0.20;0.20;;;;;;;;;;6216011;22;20035;-45
2021/12/13 10:58:36;;;;;;;0.20;0.20;;;;;;;;;;6210170;22;20009;-44
2021/12/13 11:01:05;;;;;;;0.35;0.10;;;;;;;;;;6212453;22;20092;-45
2021/12/13 11:03:32;;;;;;;0.15;0.15;;;;;;;;;;6214020;22;20024;-43
2021/12/13 11:05:57;;;;;;;0.20;0.20;;;;;;;;;;6216071;22;20089;-43
2021/12/13 11:08:24;;;;;;;0.30;0.30;;;;;;;;;;6213619;22;20028;-42
2021/12/13 11:10:52;;;;;;;0.20;0.20;;;;;;;;;;6211131;22;20020;-43
2021/12/13 11:13:17;;;;;;;0.32;0.20;;;;;;;;;;6207310;22;20483;-43
2021/12/13 11:15:44;;;;;;;0.30;0.30;;;;;;;;;;6215427;22;20706;-46
2021/12/13 11:18:12;;;;;;;0.75;0.35;;;;;;;;;;6216304;22;20050;-44
2021/12/13 11:20:39;;;;;;;0.22;0.20;;;;;;;;;;6212222;22;20008;-43
2021/12/13 11:23:07;;;;;;;0.73;0.47;;;;;;;;;;6212602;22;20350;-44
2021/12/13 11:25:38;;;;;;;1.38;0.50;;;;;;;;;;6216503;22;20020;-43
2021/12/13 11:28:03;;;;;;;0.70;0.50;;;;;;;;;;6218559;22;20816;-44
2021/12/13 11:30:30;;;;;;;0.90;0.40;;;;;;;;;;6202667;22;20008;-45
2021/12/13 11:32:58;;;;;;;1.45;0.57;;;;;;;;;;6219110;22;20023;-44
2021/12/13 11:35:42;;;;;;;2.78;0.32;;;;;;;;;;6213679;22;20008;-43
2021/12/13 11:38:29;;;;;;;4.32;0.85;;;;;;;;;;6212302;22;20656;-42
2021/12/13 11:41:19;;;;;;;4.00;0.75;;;;;;;;;;6213345;22;20398;-43
2021/12/13 11:44:03;;;;;;;4.50;0.90;;;;;;;;;;6215961;22;20043;-43
2021/12/13 11:46:29;;;;;;;1.60;0.63;;;;;;;;;;6212234;22;20385;-45
2021/12/13 11:49:03;;;;;;;2.83;0.60;;;;;;;;;;6213216;22;20087;-43
2021/12/13 11:51:40;;;;;;;2.58;0.60;;;;;;;;;;6215129;22;20025;-42
2021/12/13 11:54:25;;;;;;;1.33;0.80;;;;;;;;;;6218368;22;20581;-45
2021/12/13 11:57:09;;;;;;;1.08;0.60;;;;;;;;;;6211997;22;20041;-43
2021/12/13 11:59:40;;;;;;;3.47;1.20;;;;;;;;;;6217533;22;20367;-44
2021/12/13 12:02:15;;;;;;;3.78;1.10;;;;;;;;;;6217776;22;20008;-42
2021/12/13 12:05:06;;;;;;;2.88;0.68;;;;;;;;;;6208396;23;20104;-47
2021/12/13 12:07:51;;;;;;;2.20;0.70;;;;;;;;;;6198924;23;20009;-45
2021/12/13 12:10:16;;;;;;;1.75;0.68;;;;;;;;;;6213260;22;20357;-43
2021/12/13 12:12:41;;;;;;;1.52;0.70;;;;;;;;;;6217591;22;20015;-43
2021/12/13 12:15:07;;;;;;;1.77;1.13;;;;;;;;;;6216823;22;20016;-43
2021/12/13 12:17:34;;;;;;;2.50;0.68;;;;;;;;;;6212594;22;20235;-44
2021/12/13 12:19:59;;;;;;;2.53;0.60;;;;;;;;;;6212124;22;20004;-42
2021/12/13 12:22:36;;;;;;;2.13;0.57;;;;;;;;;;6215729;22;20689;-44
2021/12/13 12:25:02;;;;;;;1.63;0.55;;;;;;;;;;6218436;22;20202;-45
2021/12/13 12:27:32;;;;;;;1.58;0.60;;;;;;;;;;6212275;22;20012;-46
2021/12/13 12:29:57;;;;;;;;;;;;;;;;;;6211371;22;20091;-43
2021/12/13 12:32:28;;;;;;;2.28;1.98;;;;;;;;;;6214009;22;19943;-45
2021/12/13 12:35:02;;;;;;;2.38;0.95;;;;;;;;;;6212999;22;20024;-44
2021/12/13 12:37:27;;;;;;;0.68;0.52;;;;;;;;;;6209093;22;20156;-44
2021/12/13 12:40:05;;;;;;;2.58;0.70;;;;;;;;;;6209382;22;20375;-43
2021/12/13 12:42:33;;;;;;;1.05;0.65;;;;;;;;;;6212974;22;20012;-44
2021/12/13 12:45:10;;;;;;;1.38;1.00;;;;;;;;;;6214740;22;20027;-48
2021/12/13 12:47:35;;;;;;;3.05;0.88;;;;;;;;;;6213111;22;20008;-44
2021/12/13 12:50:14;;;;;;;1.92;0.90;;;;;;;;;;6214661;22;20024;-44
2021/12/13 12:52:49;;;;;;;1.08;0.70;;;;;;;;;;6208779;22;20012;-44
2021/12/13 12:55:15;;;;;;;0.52;0.40;;;;;;;;;;6209608;22;20016;-46
2021/12/13 12:57:40;;;;;;;1.83;0.90;;;;;;;;;;6214566;22;20027;-44
2021/12/13 13:00:06;;;;;;;1.45;0.88;;;;;;;;;;6214330;22;20627;-45
2021/12/13 13:02:32;;;;;;;1.50;1.40;;;;;;;;;;6208757;22;20017;-47
2021/12/13 13:04:58;;;;;;;1.75;0.80;;;;;;;;;;6208756;22;20021;-44
2021/12/13 13:07:27;;;;;;;4.22;0.80;;;;;;;;;;6211473;22;20087;-46
2021/12/13 13:12:47;;;;;;;0.68;0.60;;;;;;;;;;6211498;22;20016;-46
2021/12/13 13:15:14;;;;;;;1.25;0.50;;;;;;;;;;6211612;22;20027;-43
2021/12/13 13:17:41;;;;;;;1.83;0.68;;;;;;;;;;6215675;22;20019;-44
2021/12/13 13:20:21;;;;;;;2.08;0.63;;;;;;;;;;6217998;22;20016;-44
2021/12/13 13:22:47;;;;;;;2.88;0.50;;;;;;;;;;6211796;22;20017;-43
2021/12/13 13:25:15;;;;;;;0.52;0.52;;;;;;;;;;6211397;22;20785;-44
2021/12/13 13:27:40;;;;;;;1.60;0.45;;;;;;;;;;6216517;22;20019;-43
2021/12/13 13:30:08;;;;;;;1.65;0.70;;;;;;;;;;6216845;22;20501;-46
2021/12/13 13:32:36;;;;;;;0.95;0.38;;;;;;;;;;6210418;22;20058;-43
2021/12/13 13:35:02;;;;;;;1.17;0.40;;;;;;;;;;6211920;22;20020;-44
2021/12/13 13:37:29;;;;;;;0.68;0.30;;;;;;;;;;6214229;22;20730;-44
2021/12/13 13:39:56;;;;;;;2.70;0.65;;;;;;;;;;6216685;22;20170;-45
2021/12/13 13:42:25;;;;;;;1.02;0.30;;;;;;;;;;6213661;22;20696;-43
2021/12/13 13:45:08;;;;;;;0.80;0.45;;;;;;;;;;6211173;22;20024;-46
2021/12/13 13:47:33;;;;;;;3.30;0.60;;;;;;;;;;6215677;22;20008;-46
2021/12/13 13:50:15;;;;;;;0.75;0.47;;;;;;;;;;6216269;22;20028;-47
2021/12/13 13:52:41;;;;;;;1.55;0.30;;;;;;;;;;6211949;22;20016;-43
2021/12/13 13:55:18;;;;;;;1.60;0.30;;;;;;;;;;6209739;22;20063;-43
2021/12/13 13:57:47;;;;;;;5.53;0.40;;;;;;;;;;6209824;22;20016;-47
2021/12/13 14:00:13;;;;;;;0.43;0.40;;;;;;;;;;6209262;22;20488;-43
2021/12/13 14:02:38;;;;;;;0.40;0.40;;;;;;;;;;6217299;22;20036;-44
2021/12/13 14:05:05;;;;;;;0.82;0.35;;;;;;;;;;6215852;22;20034;-44
2021/12/13 14:07:31;;;;;;;0.43;0.35;;;;;;;;;;6211587;22;20023;-43
2021/12/13 14:09:58;;;;;;;2.25;0.38;;;;;;;;;;6211800;22;20009;-43
2021/12/13 14:12:26;;;;;;;0.73;0.32;;;;;;;;;;6213035;22;20019;-42
2021/12/13 14:14:53;;;;;;;2.00;0.45;;;;;;;;;;6216380;22;20047;-43
2021/12/13 14:17:31;;;;;;;0.30;0.30;;;;;;;;;;6214512;22;20016;-43
2021/12/13 14:20:02;;;;;;;0.57;0.40;;;;;;;;;;6211375;22;20000;-43
2021/12/13 14:22:30;;;;;;;2.20;0.47;;;;;;;;;;6212603;22;20071;-43
2021/12/13 14:24:55;;;;;;;2.33;0.45;;;;;;;;;;6217186;22;20068;-46
2021/12/13 14:27:24;;;;;;;2.30;0.68;;;;;;;;;;6213641;22;20024;-44
2021/12/13 14:29:53;;;;;;;0.40;0.40;;;;;;;;;;6210507;22;20047;-45
2021/12/13 14:32:19;;;;;;;2.78;0.50;;;;;;;;;;6211912;22;20231;-44
2021/12/13 14:34:44;;;;;;;0.57;0.50;;;;;;;;;;6216851;22;20011;-44
2021/12/13 14:37:10;;;;;;;1.30;0.60;;;;;;;;;;6215924;22;20586;-43
2021/12/13 14:39:37;;;;;;;0.50;0.40;;;;;;;;;;6212117;22;20011;-43
2021/12/13 14:42:06;;;;;;;0.68;0.65;;;;;;;;;;6208845;23;20017;-43
2021/12/13 14:44:37;;;;;;;1.55;0.77;;;;;;;;;;6197200;23;20051;-45
2021/12/13 14:47:08;;;;;;;1.35;0.50;;;;;;;;;;6210926;22;20825;-44
2021/12/13 14:49:42;;;;;;;1.42;0.52;;;;;;;;;;6215057;22;20046;-43
2021/12/13 14:52:10;;;;;;;0.60;0.45;;;;;;;;;;6216116;22;20757;-42
2021/12/13 14:54:36;;;;;;;0.73;0.50;;;;;;;;;;6211993;22;20019;-44
2021/12/13 14:57:07;;;;;;;1.48;0.77;;;;;;;;;;6213964;22;20012;-44
2021/12/13 14:59:33;;;;;;;0.70;0.63;;;;;;;;;;6217118;22;20009;-43
2021/12/13 15:01:59;;;;;;;1.65;0.50;;;;;;;;;;6218527;22;20020;-42
2021/12/13 15:04:26;;;;;;;0.70;0.50;;;;;;;;;;6210166;22;20836;-45
2021/12/13 15:06:54;;;;;;;0.80;0.40;;;;;;;;;;6213011;22;20024;-42